• Join FlightAware (Why Join?)
  • Login
  • US Flag 
06:13PM EDT


 

Airport Tracker/Info


-or-


 

Live Flight TrackerFlight Track Log ✈ AAL963 ✈ 10-Feb-2014 ✈ KDFW - SBGR / GRU

Flight Track Log - Related Links

Times and Time Zones

All times are in EST time to prevent confusion due to time zone crossing. See the AAL963 flight status page for this flight to view local times or setup timezone preferences in your user account.

Time Position Orientation Groundspeed Altitude Reporting Facility
EST Latitude Longitude Course Direction KTS MPH feet Rate Location/Type
10:49PM 32.9211 -97.0542 358° North 162 186 1,700  Level FlightAware ADS-B
10:49PM 32.9279 -97.0571 340° North 171 197 1,900 840 Climbing FlightAware ADS-B (KAFW)
10:49PM 32.9431 -97.0647 337° Northwest 208 239 2,200 1,140 Climbing FlightAware ADS-B (KAFW)
10:49PM 32.9624 -97.0739 338° Northwest 232 267 2,700 2,220 Climbing FlightAware ADS-B (KAFW)
10:50PM 32.9848 -97.0833 341° North 244 281 3,700 2,580 Climbing FlightAware ADS-B (KAFW)
10:50PM 33.0071 -97.0939 338° Northwest 258 297 4,500 2,580 Climbing FlightAware ADS-B (KAFW)
10:50PM 33.0238 -97.1160 312° West 268 308 5,500 4,080 Climbing FlightAware ADS-B (KAFW)
10:51PM 33.0272 -97.1301 286° West 265 305 6,200 3,720 Climbing FlightAware ADS-B
10:51PM 33.0217 -97.1635 259° West 245 282 7,800 3,000 Climbing FlightAware ADS-B (KAFW)
10:51PM 33.0092 -97.1907 241° Southwest 256 295 8,800 2,460 Climbing FlightAware ADS-B (KAFW)
10:52PM 32.9967 -97.2147 238° Southwest 262 302 9,500 1,260 Climbing FlightAware ADS-B (KAFW)
10:52PM 32.9835 -97.2414 239° Southwest 271 312 9,700 720 Climbing FlightAware ADS-B (KAFW)
10:52PM 32.9650 -97.2642 226° Southwest 298 343 10,000 1,320 Climbing FlightAware ADS-B (KAFW)
10:53PM 32.9503 -97.2713 202° Southwest 319 367 10,300 1,260 Climbing FlightAware ADS-B
10:53PM 32.9059 -97.2796 189° South 354 407 10,900 1,260 Climbing FlightAware ADS-B (KAFW)
10:53PM 32.8683 -97.2822 183° South 380 437 11,500 2,040 Climbing FlightAware ADS-B (KAFW)
10:54PM 32.8352 -97.2743 169° South 392 451 12,300 2,640 Climbing FlightAware ADS-B (KAFW)
10:54PM 32.7741 -97.2316 150° Southeast 405 466 14,200 2,580 Climbing FlightAware ADS-B (KAFW)
10:55PM 32.7101 -97.1766 144° Southeast 424 488 15,800 2,100 Climbing FlightAware ADS-B (KAFW)
10:56PM 32.6883 -97.1577 144° Southeast 440 506 17,000 2,520 Climbing FlightAware ADS-B (KAFW)
10:56PM 32.6010 -97.0832 144° Southeast 451 519 19,200 2,340 Climbing FlightAware ADS-B
10:58PM 32.4135 -96.9244 144° Southeast 478 550 22,000 1,920 Climbing FlightAware ADS-B (KHOU)
10:58PM 32.3625 -96.8813 145° Southeast 487 560 22,900 1,920 Climbing FlightAware ADS-B (KHOU)
10:59PM 32.3027 -96.8331 146° Southeast 488 562 23,900 1,860 Climbing FlightAware ADS-B (KHOU)
10:59PM 32.2608 -96.8083 153° Southeast 485 558 24,500 1,740 Climbing FlightAware ADS-B (KHOU)
11:00PM 32.1674 -96.7707 161° South 486 559 25,800 1,680 Climbing FlightAware ADS-B (KHOU)
11:00PM 32.1048 -96.7470 162° South 492 566 26,600 1,680 Climbing FlightAware ADS-B (KHOU)
11:01PM 32.0391 -96.7221 162° South 497 572 27,500 1,680 Climbing FlightAware ADS-B (KHOU)
11:01PM 31.9727 -96.6969 162° South 497 572 28,300 1,680 Climbing FlightAware ADS-B (KHOU)
11:02PM 31.9215 -96.6775 162° South 498 573 29,000 1,800 Climbing FlightAware ADS-B
11:02PM 31.9105 -96.6734 162° South 499 574 29,200 1,380 Climbing FlightAware ADS-B (KHOU)
11:02PM 31.8458 -96.6485 162° South 506 582 29,900 1,680 Climbing FlightAware ADS-B (KHOU)
11:03PM 31.7949 -96.6273 161° South 502 578 30,700 2,220 Climbing FlightAware ADS-B
11:03PM 31.7739 -96.6186 161° South 502 578 31,000 1,860 Climbing FlightAware ADS-B (KHOU)
11:03PM 31.7070 -96.5908 160° South 498 573 31,900 1,740 Climbing FlightAware ADS-B (KHOU)
11:04PM 31.7001 -96.5879 161° South 497 572 32,000 1,620 Climbing FlightAware ADS-B
11:04PM 31.6440 -96.5648 161° South 497 572 32,700 1,440 Climbing FlightAware ADS-B (KHOU)
11:04PM 31.6223 -96.5559 161° South 496 571 32,900 300 Climbing FlightAware ADS-B
11:05PM 31.5157 -96.5023 157° South 515 593 33,000 60 Climbing FlightAware ADS-B (KHOU)
11:05PM 31.4911 -96.4809 143° Southeast 523 602 33,000  Level FlightAware ADS-B
11:05PM 31.4582 -96.4467 139° Southeast 531 611 33,000  Level FlightAware ADS-B (KHOU)
11:06PM 31.4379 -96.4245 137° Southeast 531 611 33,000  Level FlightAware ADS-B
11:07PM 31.2817 -96.2480 136° Southeast 529 609 33,000  Level FlightAware ADS-B
11:08PM 31.2079 -96.1659 136° Southeast 528 608 33,000  Level FlightAware ADS-B
11:08PM 31.1481 -96.0997 137° Southeast 526 605 33,000  Level FlightAware ADS-B
11:10PM 31.0169 -95.9556 137° Southeast 527 606 33,000  Level FlightAware ADS-B
11:11PM 30.9215 -95.8510 137° Southeast 525 604 33,000  Level FlightAware ADS-B
11:11PM 30.8553 -95.7783 137° Southeast 521 600 33,000  Level FlightAware ADS-B
11:12PM 30.7639 -95.6786 137° Southeast 524 603 33,000  Level Fort Worth Center
11:18PM 30.1565 -95.0205 137° Southeast 528 608 33,000  Level FlightAware ADS-B
11:18PM 30.0718 -94.9297 137° Southeast 529 609 33,000  Level FlightAware ADS-B
11:19PM 29.9984 -94.8511 137° Southeast 528 608 33,000  Level FlightAware ADS-B
11:20PM 29.9276 -94.7755 137° Southeast 529 609 33,000  Level FlightAware ADS-B
11:20PM 29.8560 -94.6992 137° Southeast 529 609 33,000  Level FlightAware ADS-B
11:21PM 29.7843 -94.6231 137° Southeast 527 606 33,000  Level FlightAware ADS-B
11:22PM 29.7171 -94.5517 137° Southeast 524 603 33,000  Level FlightAware ADS-B
11:22PM 29.6570 -94.4882 137° Southeast 524 603 33,000  Level FlightAware ADS-B (KHOU)
11:23PM 29.6030 -94.4310 137° Southeast 522 601 33,000  Level FlightAware ADS-B (KHOU)
11:23PM 29.5503 -94.3754 137° Southeast 522 601 33,000  Level FlightAware ADS-B (KHOU)
11:24PM 29.4997 -94.3220 137° Southeast 518 596 33,000  Level FlightAware ADS-B
11:24PM 29.4990 -94.3213 139° Southeast 519 597 33,000  Level FlightAware ADS-B (KHOU)
11:24PM 29.4489 -94.2686 138° Southeast 518 596 33,000  Level FlightAware ADS-B (KHOU)
11:25PM 29.3905 -94.2072 138° Southeast 518 596 33,000  Level FlightAware ADS-B (KHOU)
11:25PM 29.3381 -94.1523 138° Southeast 518 596 33,000  Level FlightAware ADS-B (KHOU)
11:25PM 29.3344 -94.1484 137° Southeast 517 595 33,000  Level FlightAware ADS-B
11:26PM 29.2864 -94.0981 138° Southeast 518 596 33,000  Level FlightAware ADS-B (KHOU)
11:26PM 29.2398 -94.0493 138° Southeast 518 596 33,000  Level FlightAware ADS-B (KHOU)
11:27PM 29.1847 -93.9917 138° Southeast 519 597 33,000  Level FlightAware ADS-B (KHOU)
11:27PM 29.1479 -93.9533 138° Southeast 520 598 33,000  Level FlightAware ADS-B (KHOU)
11:28PM 29.0572 -93.8575 138° Southeast 517 595 33,000  Level Houston Center
11:29PM 28.9469 -93.7439 138° Southeast 517 595 33,000  Level Houston Center
11:30PM 28.8444 -93.6361 137° Southeast 516 594 33,000 -60 Level Houston Center
11:31PM 28.7342 -93.5244 138° Southeast 517 595 32,900  Descending Houston Center
11:32PM 28.6286 -93.4147 138° Southeast 516 594 33,000  Climbing Houston Center
11:33PM 28.5250 -93.3083 138° Southeast 514 592 33,000 -60 Level Houston Center
11:34PM 28.4167 -93.1986 138° Southeast 513 590 32,900  Descending Houston Center
11:35PM 28.3117 -93.0908 138° Southeast 510 587 33,000  Climbing Houston Center
11:36PM 28.2069 -92.9839 138° Southeast 508 585 33,000 -60 Level Houston Center
11:37PM 28.1017 -92.8781 138° Southeast 508 585 32,900  Descending Houston Center
11:38PM 27.9964 -92.7711 138° Southeast 508 585 33,000  Climbing Houston Center
11:39PM 27.8714 -92.6417 138° Southeast 508 585 33,000 -60 Level Houston Center
11:40PM 27.7650 -92.5381 139° Southeast 508 585 32,900 -60 Descending Houston Center
11:41PM 27.6594 -92.4314 138° Southeast 509 586 32,900  Level Houston Center
11:42PM 27.5547 -92.3253 138° Southeast 508 585 32,900  Level Houston Center
11:43PM 27.4489 -92.2208 139° Southeast 507 583 33,000  Climbing Houston Center
11:44PM 27.3431 -92.1167 139° Southeast 506 582 33,000  Level Houston Center
11:45PM 27.2375 -92.0125 139° Southeast 507 583 33,000 -60 Level Houston Center
11:46PM 27.1289 -91.9119 141° Southeast 506 582 32,900  Descending Houston Center
11:48PM 27.0033 -91.8099 144° Southeast  Level FlightAware Approximate
11:55PM 26.2370 -91.1942 145° Southeast  Level FlightAware Approximate
11:56PM 26.1270 -91.1076 145° Southeast  Level FlightAware Approximate
11:57PM 26.0168 -91.0211 145° Southeast  Level FlightAware Approximate
11:58PM 25.9066 -90.9348 145° Southeast  Level FlightAware Approximate
11:59PM 25.7964 -90.8486 145° Southeast  Level FlightAware Approximate
12:00AM 25.6861 -90.7626 145° Southeast  Level FlightAware Approximate
12:01AM 25.5757 -90.6768 145° Southeast  Level FlightAware Approximate
12:02AM 25.4653 -90.5911 145° Southeast  Level FlightAware Approximate
12:03AM 25.3549 -90.5056 145° Southeast  Level FlightAware Approximate
12:04AM 25.2444 -90.4202 145° Southeast  Level FlightAware Approximate
12:05AM 25.1339 -90.3350 145° Southeast  Level FlightAware Approximate
12:06AM 25.0233 -90.2499 145° Southeast  Level FlightAware Approximate
12:07AM 24.9126 -90.1650 145° Southeast  Level FlightAware Approximate
12:08AM 24.8020 -90.0803 145° Southeast  Level FlightAware Approximate
12:09AM 24.6912 -89.9957 145° Southeast  Level FlightAware Approximate
12:10AM 24.5804 -89.9112 145° Southeast  Level FlightAware Approximate
12:11AM 24.4763 -89.8195 119° Southeast  Level FlightAware Approximate
12:12AM 24.4102 -89.6905 119° Southeast  Level FlightAware Approximate
12:13AM 24.3440 -89.5615 119° Southeast  Level FlightAware Approximate
12:14AM 24.2777 -89.4328 119° Southeast  Level FlightAware Approximate
12:15AM 24.2113 -89.3041 119° Southeast  Level FlightAware Approximate
12:16AM 24.1274 -89.1904 136° Southeast  Level FlightAware Approximate
12:17AM 24.0308 -89.0875 136° Southeast  Level FlightAware Approximate
12:18AM 23.9341 -88.9847 136° Southeast  Level FlightAware Approximate
12:19AM 23.8373 -88.8821 136° Southeast  Level FlightAware Approximate
12:20AM 23.7404 -88.7797 136° Southeast  Level FlightAware Approximate
12:21AM 23.6435 -88.6774 136° Southeast  Level FlightAware Approximate
12:22AM 23.5466 -88.5752 136° Southeast  Level FlightAware Approximate
12:23AM 23.4497 -88.4731 136° Southeast  Level FlightAware Approximate
12:24AM 23.3527 -88.3711 136° Southeast  Level FlightAware Approximate
12:25AM 23.2556 -88.2693 136° Southeast  Level FlightAware Approximate
12:26AM 23.1585 -88.1676 136° Southeast  Level FlightAware Approximate
12:27AM 23.0613 -88.0661 136° Southeast  Level FlightAware Approximate
12:28AM 22.9640 -87.9647 136° Southeast  Level FlightAware Approximate
12:29AM 22.8667 -87.8635 136° Southeast  Level FlightAware Approximate
12:30AM 22.7693 -87.7624 136° Southeast  Level FlightAware Approximate
12:31AM 22.6718 -87.6615 136° Southeast  Level FlightAware Approximate
12:32AM 22.5743 -87.5607 136° Southeast  Level FlightAware Approximate
12:33AM 22.4767 -87.4601 136° Southeast  Level FlightAware Approximate
12:34AM 22.3791 -87.3596 136° Southeast  Level FlightAware Approximate
12:35AM 22.2814 -87.2592 136° Southeast  Level FlightAware Approximate
12:36AM 22.1836 -87.1590 136° Southeast  Level FlightAware Approximate
12:37AM 22.0858 -87.0589 137° Southeast  Level FlightAware Approximate
12:38AM 21.9879 -86.9589 137° Southeast  Level FlightAware Approximate
12:39AM 21.8899 -86.8591 137° Southeast  Level FlightAware Approximate
12:40AM 21.7919 -86.7595 137° Southeast  Level FlightAware Approximate
12:41AM 21.6938 -86.6600 137° Southeast  Level FlightAware Approximate
12:42AM 21.5956 -86.5606 137° Southeast  Level FlightAware Approximate
12:43AM 21.4974 -86.4614 137° Southeast  Level FlightAware Approximate
12:44AM 21.3991 -86.3623 137° Southeast  Level FlightAware Approximate
12:45AM 21.3008 -86.2634 137° Southeast  Level FlightAware Approximate
12:46AM 21.2023 -86.1646 137° Southeast  Level FlightAware Approximate
12:47AM 21.1039 -86.0659 137° Southeast  Level FlightAware Approximate
12:48AM 21.0054 -85.9673 137° Southeast  Level FlightAware Approximate
12:49AM 20.9068 -85.8689 137° Southeast  Level FlightAware Approximate
12:50AM 20.8081 -85.7706 137° Southeast  Level FlightAware Approximate
12:51AM 20.7094 -85.6724 137° Southeast  Level FlightAware Approximate
12:52AM 20.6107 -85.5744 137° Southeast  Level FlightAware Approximate
12:53AM 20.5119 -85.4765 137° Southeast  Level FlightAware Approximate
12:54AM 20.4130 -85.3787 137° Southeast  Level FlightAware Approximate
12:55AM 20.3141 -85.2810 137° Southeast  Level FlightAware Approximate
12:56AM 20.2153 -85.1833 137° Southeast  Level FlightAware Approximate
12:57AM 20.1164 -85.0858 137° Southeast  Level FlightAware Approximate
12:58AM 20.0174 -84.9884 137° Southeast  Level FlightAware Approximate
12:59AM 19.9184 -84.8911 137° Southeast  Level FlightAware Approximate
01:00AM 19.8194 -84.7939 137° Southeast  Level FlightAware Approximate
01:01AM 19.7203 -84.6968 137° Southeast  Level FlightAware Approximate
01:02AM 19.6211 -84.5999 137° Southeast  Level FlightAware Approximate
01:03AM 19.5219 -84.5031 137° Southeast  Level FlightAware Approximate
01:04AM 19.4226 -84.4064 137° Southeast  Level FlightAware Approximate
01:05AM 19.3233 -84.3098 137° Southeast  Level FlightAware Approximate
01:06AM 19.2239 -84.2133 137° Southeast  Level FlightAware Approximate
01:07AM 19.1245 -84.1170 138° Southeast  Level FlightAware Approximate
01:08AM 19.0250 -84.0207 138° Southeast  Level FlightAware Approximate
01:09AM 18.9255 -83.9246 138° Southeast  Level FlightAware Approximate
01:10AM 18.8261 -83.8284 137° Southeast  Level FlightAware Approximate
01:11AM 18.7267 -83.7323 138° Southeast  Level FlightAware Approximate
01:12AM 18.6272 -83.6363 138° Southeast  Level FlightAware Approximate
01:13AM 18.5277 -83.5404 138° Southeast  Level FlightAware Approximate
01:14AM 18.4282 -83.4446 138° Southeast  Level FlightAware Approximate
01:15AM 18.3285 -83.3490 138° Southeast  Level FlightAware Approximate
01:16AM 18.2289 -83.2534 138° Southeast  Level FlightAware Approximate
01:17AM 18.1292 -83.1579 138° Southeast  Level FlightAware Approximate
01:18AM 18.0294 -83.0626 138° Southeast  Level FlightAware Approximate
01:19AM 17.9296 -82.9673 138° Southeast  Level FlightAware Approximate
01:20AM 17.8298 -82.8722 138° Southeast  Level FlightAware Approximate
01:21AM 17.7299 -82.7772 138° Southeast  Level FlightAware Approximate
01:22AM 17.6299 -82.6823 138° Southeast  Level FlightAware Approximate
01:23AM 17.5300 -82.5874 138° Southeast  Level FlightAware Approximate
01:24AM 17.4299 -82.4927 138° Southeast  Level FlightAware Approximate
01:25AM 17.3299 -82.3981 138° Southeast  Level FlightAware Approximate
01:26AM 17.2297 -82.3036 138° Southeast  Level FlightAware Approximate
01:27AM 17.1296 -82.2092 138° Southeast  Level FlightAware Approximate
01:28AM 17.0291 -82.1153 139° Southeast  Level FlightAware Approximate
01:29AM 16.9281 -82.0220 139° Southeast  Level FlightAware Approximate
01:30AM 16.8270 -81.9288 139° Southeast  Level FlightAware Approximate
01:31AM 16.7259 -81.8357 139° Southeast  Level FlightAware Approximate
01:32AM 16.6248 -81.7427 139° Southeast  Level FlightAware Approximate
01:33AM 16.5236 -81.6498 139° Southeast  Level FlightAware Approximate
01:34AM 16.4224 -81.5570 139° Southeast  Level FlightAware Approximate
01:35AM 16.3211 -81.4643 139° Southeast  Level FlightAware Approximate
01:36AM 16.2198 -81.3717 139° Southeast  Level FlightAware Approximate
01:37AM 16.1184 -81.2792 139° Southeast  Level FlightAware Approximate
01:38AM 16.0170 -81.1868 139° Southeast  Level FlightAware Approximate
01:39AM 15.9156 -81.0944 139° Southeast  Level FlightAware Approximate
01:40AM 15.8142 -81.0022 139° Southeast  Level FlightAware Approximate
01:41AM 15.7127 -80.9101 139° Southeast  Level FlightAware Approximate
01:42AM 15.6111 -80.8180 139° Southeast  Level FlightAware Approximate
01:43AM 15.5095 -80.7261 139° Southeast  Level FlightAware Approximate
01:44AM 15.4079 -80.6342 139° Southeast  Level FlightAware Approximate
01:45AM 15.3063 -80.5424 139° Southeast  Level FlightAware Approximate
01:46AM 15.2046 -80.4507 139° Southeast  Level FlightAware Approximate
01:47AM 15.1028 -80.3591 139° Southeast  Level FlightAware Approximate
01:48AM 15.0011 -80.2676 139° Southeast  Level FlightAware Approximate
01:49AM 14.9000 -80.1754 139° Southeast  Level FlightAware Approximate
01:50AM 14.7988 -80.0833 139° Southeast  Level FlightAware Approximate
01:51AM 14.6976 -79.9912 139° Southeast  Level FlightAware Approximate
01:52AM 14.5964 -79.8992 139° Southeast  Level FlightAware Approximate
01:53AM 14.4951 -79.8073 139° Southeast  Level FlightAware Approximate
01:54AM 14.3938 -79.7155 139° Southeast  Level FlightAware Approximate
01:55AM 14.2925 -79.6238 139° Southeast  Level FlightAware Approximate
01:56AM 14.1911 -79.5322 139° Southeast  Level FlightAware Approximate
01:57AM 14.0897 -79.4406 139° Southeast  Level FlightAware Approximate
01:58AM 13.9883 -79.3491 139° Southeast  Level FlightAware Approximate
01:59AM 13.8868 -79.2577 139° Southeast  Level FlightAware Approximate
02:00AM 13.7853 -79.1664 139° Southeast  Level FlightAware Approximate
02:01AM 13.6837 -79.0752 139° Southeast  Level FlightAware Approximate
02:02AM 13.5821 -78.9841 139° Southeast  Level FlightAware Approximate
02:03AM 13.4800 -78.8936 139° Southeast  Level FlightAware Approximate
02:04AM 13.3779 -78.8031 139° Southeast  Level FlightAware Approximate
02:05AM 13.2757 -78.7128 139° Southeast  Level FlightAware Approximate
02:06AM 13.1735 -78.6225 139° Southeast  Level FlightAware Approximate
02:07AM 13.0713 -78.5323 139° Southeast  Level FlightAware Approximate
02:08AM 12.9691 -78.4422 139° Southeast  Level FlightAware Approximate
02:09AM 12.8668 -78.3521 139° Southeast  Level FlightAware Approximate
02:10AM 12.7648 -78.2617 139° Southeast  Level FlightAware Approximate
02:11AM 12.6628 -78.1714 139° Southeast  Level FlightAware Approximate
02:12AM 12.5608 -78.0812 139° Southeast  Level FlightAware Approximate
02:13AM 12.4587 -77.9910 139° Southeast  Level FlightAware Approximate
02:14AM 12.3566 -77.9009 139° Southeast  Level FlightAware Approximate
02:15AM 12.2544 -77.8109 139° Southeast  Level FlightAware Approximate
02:16AM 12.1523 -77.7210 139° Southeast  Level FlightAware Approximate
02:17AM 12.0501 -77.6311 139° Southeast  Level FlightAware Approximate
02:18AM 11.9479 -77.5413 139° Southeast  Level FlightAware Approximate
02:19AM 11.8456 -77.4516 139° Southeast  Level FlightAware Approximate
02:20AM 11.7433 -77.3619 139° Southeast  Level FlightAware Approximate
02:21AM 11.6410 -77.2723 139° Southeast  Level FlightAware Approximate
02:22AM 11.5386 -77.1828 139° Southeast  Level FlightAware Approximate
02:23AM 11.4363 -77.0933 139° Southeast  Level FlightAware Approximate
02:24AM 11.3339 -77.0039 139° Southeast  Level FlightAware Approximate
02:25AM 11.2315 -76.9146 139° Southeast  Level FlightAware Approximate
02:26AM 11.1290 -76.8253 139° Southeast  Level FlightAware Approximate
02:27AM 11.0265 -76.7361 139° Southeast  Level FlightAware Approximate
02:28AM 10.9240 -76.6470 140° Southeast  Level FlightAware Approximate
02:29AM 10.8215 -76.5579 140° Southeast  Level FlightAware Approximate
02:30AM 10.7190 -76.4688 140° Southeast  Level FlightAware Approximate
02:31AM 10.6164 -76.3799 140° Southeast  Level FlightAware Approximate
02:32AM 10.5138 -76.2910 140° Southeast  Level FlightAware Approximate
02:33AM 10.4111 -76.2021 140° Southeast  Level FlightAware Approximate
02:34AM 10.3085 -76.1133 140° Southeast  Level FlightAware Approximate
02:35AM 10.2058 -76.0246 140° Southeast  Level FlightAware Approximate
02:36AM 10.1031 -75.9359 140° Southeast  Level FlightAware Approximate
02:37AM 10.0004 -75.8473 140° Southeast  Level FlightAware Approximate
02:38AM 9.8976 -75.7588 140° Southeast  Level FlightAware Approximate
02:39AM 9.7949 -75.6702 140° Southeast  Level FlightAware Approximate
02:40AM 9.6921 -75.5818 140° Southeast  Level FlightAware Approximate
02:41AM 9.5893 -75.4934 140° Southeast  Level FlightAware Approximate
02:42AM 9.4864 -75.4051 140° Southeast  Level FlightAware Approximate
02:43AM 9.3836 -75.3168 140° Southeast  Level FlightAware Approximate
02:44AM 9.2807 -75.2285 140° Southeast  Level FlightAware Approximate
02:45AM 9.1778 -75.1403 140° Southeast  Level FlightAware Approximate
02:46AM 9.0749 -75.0522 140° Southeast  Level FlightAware Approximate
02:47AM 8.9719 -74.9641 140° Southeast  Level FlightAware Approximate
02:48AM 8.8689 -74.8761 140° Southeast  Level FlightAware Approximate
02:49AM 8.7659 -74.7881 140° Southeast  Level FlightAware Approximate
02:50AM 8.6629 -74.7002 140° Southeast  Level FlightAware Approximate
02:51AM 8.5599 -74.6123 140° Southeast  Level FlightAware Approximate
02:52AM 8.4569 -74.5245 140° Southeast  Level FlightAware Approximate
02:53AM 8.3538 -74.4367 140° Southeast  Level FlightAware Approximate
02:54AM 8.2507 -74.3489 140° Southeast  Level FlightAware Approximate
02:55AM 8.1476 -74.2612 140° Southeast  Level FlightAware Approximate
02:56AM 8.0444 -74.1736 140° Southeast  Level FlightAware Approximate
02:57AM 7.9413 -74.0859 140° Southeast  Level FlightAware Approximate
02:58AM 7.8382 -73.9984 140° Southeast  Level FlightAware Approximate
02:59AM 7.7350 -73.9109 140° Southeast  Level FlightAware Approximate
03:00AM 7.6318 -73.8234 140° Southeast  Level FlightAware Approximate
03:01AM 7.5286 -73.7359 140° Southeast  Level FlightAware Approximate
03:02AM 7.4253 -73.6485 140° Southeast  Level FlightAware Approximate
03:03AM 7.3221 -73.5612 140° Southeast  Level FlightAware Approximate
03:04AM 7.2188 -73.4738 140° Southeast  Level FlightAware Approximate
03:05AM 7.1155 -73.3866 140° Southeast  Level FlightAware Approximate
03:06AM 7.0122 -73.2993 140° Southeast  Level FlightAware Approximate
03:07AM 6.9089 -73.2121 140° Southeast  Level FlightAware Approximate
03:08AM 6.8056 -73.1250 140° Southeast  Level FlightAware Approximate
03:09AM 6.7022 -73.0378 140° Southeast  Level FlightAware Approximate
03:10AM 6.5989 -72.9508 140° Southeast  Level FlightAware Approximate
03:11AM 6.4955 -72.8637 140° Southeast  Level FlightAware Approximate
03:12AM 6.3921 -72.7767 140° Southeast  Level FlightAware Approximate
03:13AM 6.2887 -72.6897 140° Southeast  Level FlightAware Approximate
03:14AM 6.1853 -72.6028 140° Southeast  Level FlightAware Approximate
03:15AM 6.0818 -72.5159 140° Southeast  Level FlightAware Approximate
03:16AM 5.9784 -72.4290 140° Southeast  Level FlightAware Approximate
03:17AM 5.8749 -72.3422 140° Southeast  Level FlightAware Approximate
03:18AM 5.7714 -72.2553 140° Southeast  Level FlightAware Approximate
03:19AM 5.6679 -72.1686 140° Southeast  Level FlightAware Approximate
03:20AM 5.5644 -72.0818 140° Southeast  Level FlightAware Approximate
03:21AM 5.4609 -71.9951 140° Southeast  Level FlightAware Approximate
03:22AM 5.3574 -71.9084 140° Southeast  Level FlightAware Approximate
03:23AM 5.2538 -71.8217 140° Southeast  Level FlightAware Approximate
03:24AM 5.1503 -71.7351 140° Southeast  Level FlightAware Approximate
03:25AM 5.0467 -71.6485 140° Southeast  Level FlightAware Approximate
03:26AM 4.9432 -71.5620 140° Southeast  Level FlightAware Approximate
03:27AM 4.8396 -71.4754 140° Southeast  Level FlightAware Approximate
03:28AM 4.7360 -71.3889 140° Southeast  Level FlightAware Approximate
03:29AM 4.6324 -71.3024 140° Southeast  Level FlightAware Approximate
03:30AM 4.5287 -71.2159 140° Southeast  Level FlightAware Approximate
03:31AM 4.4251 -71.1295 140° Southeast  Level FlightAware Approximate
03:32AM 4.3215 -71.0431 140° Southeast  Level FlightAware Approximate
03:33AM 4.2178 -70.9567 140° Southeast  Level FlightAware Approximate
03:34AM 4.1142 -70.8703 140° Southeast  Level FlightAware Approximate
03:35AM 4.0105 -70.7839 140° Southeast  Level FlightAware Approximate
03:36AM 3.9068 -70.6976 140° Southeast  Level FlightAware Approximate
03:37AM 3.8031 -70.6113 140° Southeast  Level FlightAware Approximate
03:38AM 3.6994 -70.5250 140° Southeast  Level FlightAware Approximate
03:39AM 3.5957 -70.4387 140° Southeast  Level FlightAware Approximate
03:40AM 3.4920 -70.3525 140° Southeast  Level FlightAware Approximate
03:41AM 3.3883 -70.2663 140° Southeast  Level FlightAware Approximate
03:42AM 3.2846 -70.1801 140° Southeast  Level FlightAware Approximate
03:43AM 3.1808 -70.0939 140° Southeast  Level FlightAware Approximate
03:44AM 3.0771 -70.0077 140° Southeast  Level FlightAware Approximate
03:45AM 2.9734 -69.9215 140° Southeast  Level FlightAware Approximate
03:46AM 2.8696 -69.8354 140° Southeast  Level FlightAware Approximate
03:47AM 2.7658 -69.7493 140° Southeast  Level FlightAware Approximate
03:48AM 2.6621 -69.6632 140° Southeast  Level FlightAware Approximate
03:49AM 2.5583 -69.5771 140° Southeast  Level FlightAware Approximate
03:50AM 2.4545 -69.4910 140° Southeast  Level FlightAware Approximate
03:51AM 2.3507 -69.4049 140° Southeast  Level FlightAware Approximate
03:52AM 2.2469 -69.3188 140° Southeast  Level FlightAware Approximate
03:53AM 2.1432 -69.2328 140° Southeast  Level FlightAware Approximate
03:54AM 2.0394 -69.1468 140° Southeast  Level FlightAware Approximate
03:55AM 1.9355 -69.0608 140° Southeast  Level FlightAware Approximate
03:56AM 1.8317 -68.9747 140° Southeast  Level FlightAware Approximate
03:57AM 1.7279 -68.8887 140° Southeast  Level FlightAware Approximate
03:58AM 1.6241 -68.8028 140° Southeast  Level FlightAware Approximate
03:59AM 1.5203 -68.7168 140° Southeast  Level FlightAware Approximate
04:00AM 1.4165 -68.6308 140° Southeast  Level FlightAware Approximate
04:01AM 1.3126 -68.5448 140° Southeast  Level FlightAware Approximate
04:02AM 1.2088 -68.4589 140° Southeast  Level FlightAware Approximate
04:03AM 1.1050 -68.3729 140° Southeast  Level FlightAware Approximate
04:04AM 1.0011 -68.2870 140° Southeast  Level FlightAware Approximate
04:05AM 0.8973 -68.2010 140° Southeast  Level FlightAware Approximate
04:06AM 0.7935 -68.1151 140° Southeast  Level FlightAware Approximate
04:07AM 0.6896 -68.0292 140° Southeast  Level FlightAware Approximate
04:08AM 0.5858 -67.9432 140° Southeast  Level FlightAware Approximate
04:09AM 0.4819 -67.8573 140° Southeast  Level FlightAware Approximate
04:10AM 0.3781 -67.7714 140° Southeast  Level FlightAware Approximate
04:11AM 0.2742 -67.6855 140° Southeast  Level FlightAware Approximate
04:12AM 0.1704 -67.5996 140° Southeast  Level FlightAware Approximate
04:13AM 0.0665 -67.5136 140° Southeast  Level FlightAware Approximate
04:14AM -0.0373 -67.4277 140° Southeast  Level FlightAware Approximate
04:15AM -0.1412 -67.3418 140° Southeast  Level FlightAware Approximate
04:16AM -0.2450 -67.2559 140° Southeast  Level FlightAware Approximate
04:17AM -0.3489 -67.1700 140° Southeast  Level FlightAware Approximate
04:18AM -0.4527 -67.0840 140° Southeast  Level FlightAware Approximate
04:19AM -0.5566 -66.9981 140° Southeast  Level FlightAware Approximate
04:20AM -0.6604 -66.9122 140° Southeast  Level FlightAware Approximate
04:21AM -0.7642 -66.8263 140° Southeast  Level FlightAware Approximate
04:22AM -0.8681 -66.7403 140° Southeast  Level FlightAware Approximate
04:23AM -0.9719 -66.6544 140° Southeast  Level FlightAware Approximate
04:24AM -1.0757 -66.5685 140° Southeast  Level FlightAware Approximate
04:25AM -1.1796 -66.4825 140° Southeast  Level FlightAware Approximate
04:26AM -1.2834 -66.3965 140° Southeast  Level FlightAware Approximate
04:27AM -1.3872 -66.3106 140° Southeast  Level FlightAware Approximate
04:28AM -1.4911 -66.2246 140° Southeast  Level FlightAware Approximate
04:29AM -1.5949 -66.1386 140° Southeast  Level FlightAware Approximate
04:30AM -1.6987 -66.0526 140° Southeast  Level FlightAware Approximate
04:31AM -1.8025 -65.9666 140° Southeast  Level FlightAware Approximate
04:32AM -1.9063 -65.8806 140° Southeast  Level FlightAware Approximate
04:33AM -2.0101 -65.7946 140° Southeast  Level FlightAware Approximate
04:34AM -2.1139 -65.7086 140° Southeast  Level FlightAware Approximate
04:35AM -2.2177 -65.6225 140° Southeast  Level FlightAware Approximate
04:36AM -2.3215 -65.5365 140° Southeast  Level FlightAware Approximate
04:37AM -2.4253 -65.4504 140° Southeast  Level FlightAware Approximate
04:38AM -2.5291 -65.3643 140° Southeast  Level FlightAware Approximate
04:39AM -2.6329 -65.2783 140° Southeast  Level FlightAware Approximate
04:40AM -2.7366 -65.1921 140° Southeast  Level FlightAware Approximate
04:41AM -2.8404 -65.1060 140° Southeast  Level FlightAware Approximate
04:42AM -2.9442 -65.0199 140° Southeast  Level FlightAware Approximate
04:43AM -3.0479 -64.9337 140° Southeast  Level FlightAware Approximate
04:44AM -3.1516 -64.8476 140° Southeast  Level FlightAware Approximate
04:45AM -3.2554 -64.7614 140° Southeast  Level FlightAware Approximate
04:46AM -3.3591 -64.6752 140° Southeast  Level FlightAware Approximate
04:47AM -3.4628 -64.5890 140° Southeast  Level FlightAware Approximate
04:48AM -3.5666 -64.5027 140° Southeast  Level FlightAware Approximate
04:49AM -3.6703 -64.4165 140° Southeast  Level FlightAware Approximate
04:50AM -3.7740 -64.3302 140° Southeast  Level FlightAware Approximate
04:51AM -3.8777 -64.2439 140° Southeast  Level FlightAware Approximate
04:52AM -3.9813 -64.1576 140° Southeast  Level FlightAware Approximate
04:53AM -4.0850 -64.0712 140° Southeast  Level FlightAware Approximate
04:54AM -4.1887 -63.9849 140° Southeast  Level FlightAware Approximate
04:55AM -4.2923 -63.8985 140° Southeast  Level FlightAware Approximate
04:56AM -4.3959 -63.8120 140° Southeast  Level FlightAware Approximate
04:57AM -4.4996 -63.7256 140° Southeast  Level FlightAware Approximate
04:58AM -4.6032 -63.6391 140° Southeast  Level FlightAware Approximate
04:59AM -4.7068 -63.5527 140° Southeast  Level FlightAware Approximate
05:00AM -4.8104 -63.4661 140° Southeast  Level FlightAware Approximate
05:01AM -4.9140 -63.3796 140° Southeast  Level FlightAware Approximate
05:02AM -5.0176 -63.2930 140° Southeast  Level FlightAware Approximate
05:03AM -5.1212 -63.2065 140° Southeast  Level FlightAware Approximate
05:04AM -5.2247 -63.1198 140° Southeast  Level FlightAware Approximate
05:05AM -5.3282 -63.0332 140° Southeast  Level FlightAware Approximate
05:06AM -5.4318 -62.9465 140° Southeast  Level FlightAware Approximate
05:07AM -5.5353 -62.8598 140° Southeast  Level FlightAware Approximate
05:08AM -5.6388 -62.7730 140° Southeast  Level FlightAware Approximate
05:09AM -5.7423 -62.6863 140° Southeast  Level FlightAware Approximate
05:10AM -5.8458 -62.5995 140° Southeast  Level FlightAware Approximate
05:11AM -5.9493 -62.5126 140° Southeast  Level FlightAware Approximate
05:12AM -6.0527 -62.4258 140° Southeast  Level FlightAware Approximate
05:13AM -6.1561 -62.3389 140° Southeast  Level FlightAware Approximate
05:14AM -6.2596 -62.2519 140° Southeast  Level FlightAware Approximate
05:15AM -6.3630 -62.1650 140° Southeast  Level FlightAware Approximate
05:16AM -6.4664 -62.0780 140° Southeast  Level FlightAware Approximate
05:17AM -6.5698 -61.9909 140° Southeast  Level FlightAware Approximate
05:18AM -6.6731 -61.9039 140° Southeast  Level FlightAware Approximate
05:19AM -6.7765 -61.8168 140° Southeast  Level FlightAware Approximate
05:20AM -6.8798 -61.7296 140° Southeast  Level FlightAware Approximate
05:21AM -6.9831 -61.6424 140° Southeast  Level FlightAware Approximate
05:22AM -7.0864 -61.5552 140° Southeast  Level FlightAware Approximate
05:23AM -7.1897 -61.4679 140° Southeast  Level FlightAware Approximate
05:24AM -7.2930 -61.3806 140° Southeast  Level FlightAware Approximate
05:25AM -7.3963 -61.2933 140° Southeast  Level FlightAware Approximate
05:26AM -7.4995 -61.2059 140° Southeast  Level FlightAware Approximate
05:27AM -7.6027 -61.1185 140° Southeast  Level FlightAware Approximate
05:28AM -7.7059 -61.0310 140° Southeast  Level FlightAware Approximate
05:29AM -7.8091 -60.9435 140° Southeast  Level FlightAware Approximate
05:30AM -7.9123 -60.8559 140° Southeast  Level FlightAware Approximate
05:31AM -8.0154 -60.7683 140° Southeast  Level FlightAware Approximate
05:32AM -8.1186 -60.6807 140° Southeast  Level FlightAware Approximate
05:33AM -8.2217 -60.5930 140° Southeast  Level FlightAware Approximate
05:34AM -8.3248 -60.5053 140° Southeast  Level FlightAware Approximate
05:35AM -8.4278 -60.4175 140° Southeast  Level FlightAware Approximate
05:36AM -8.5309 -60.3297 140° Southeast  Level FlightAware Approximate
05:37AM -8.6339 -60.2418 140° Southeast  Level FlightAware Approximate
05:38AM -8.7369 -60.1539 140° Southeast  Level FlightAware Approximate
05:39AM -8.8399 -60.0659 140° Southeast  Level FlightAware Approximate
05:40AM -8.9429 -59.9779 140° Southeast  Level FlightAware Approximate
05:41AM -9.0458 -59.8898 140° Southeast  Level FlightAware Approximate
05:42AM -9.1488 -59.8017 140° Southeast  Level FlightAware Approximate
05:43AM -9.2517 -59.7135 140° Southeast  Level FlightAware Approximate
05:44AM -9.3546 -59.6253 140° Southeast  Level FlightAware Approximate
05:45AM -9.4574 -59.5370 140° Southeast  Level FlightAware Approximate
05:46AM -9.5603 -59.4487 140° Southeast  Level FlightAware Approximate
05:47AM -9.6631 -59.3603 140° Southeast  Level FlightAware Approximate
05:48AM -9.7659 -59.2719 140° Southeast  Level FlightAware Approximate
05:49AM -9.8687 -59.1834 140° Southeast  Level FlightAware Approximate
05:50AM -9.9714 -59.0949 140° Southeast  Level FlightAware Approximate
05:51AM -10.0742 -59.0063 140° Southeast  Level FlightAware Approximate
05:52AM -10.1769 -58.9176 140° Southeast  Level FlightAware Approximate
05:53AM -10.2795 -58.8289 140° Southeast  Level FlightAware Approximate
05:54AM -10.3822 -58.7401 140° Southeast  Level FlightAware Approximate
05:55AM -10.4848 -58.6513 140° Southeast  Level FlightAware Approximate
05:56AM -10.5875 -58.5624 140° Southeast  Level FlightAware Approximate
05:57AM -10.6901 -58.4735 140° Southeast  Level FlightAware Approximate
05:58AM -10.7926 -58.3844 140° Southeast  Level FlightAware Approximate
05:59AM -10.8952 -58.2954 140° Southeast  Level FlightAware Approximate
06:00AM -10.9977 -58.2062 140° Southeast  Level FlightAware Approximate
06:01AM -11.1001 -58.1171 140° Southeast  Level FlightAware Approximate
06:02AM -11.2026 -58.0278 139° Southeast  Level FlightAware Approximate
06:03AM -11.3050 -57.9385 139° Southeast  Level FlightAware Approximate
06:04AM -11.4074 -57.8491 139° Southeast  Level FlightAware Approximate
06:05AM -11.5098 -57.7597 139° Southeast  Level FlightAware Approximate
06:06AM -11.6122 -57.6701 139° Southeast  Level FlightAware Approximate
06:07AM -11.7145 -57.5806 139° Southeast  Level FlightAware Approximate
06:08AM -11.8168 -57.4909 139° Southeast  Level FlightAware Approximate
06:09AM -11.9190 -57.4012 139° Southeast  Level FlightAware Approximate
06:10AM -12.0213 -57.3114 139° Southeast  Level FlightAware Approximate
06:11AM -12.1235 -57.2216 139° Southeast  Level FlightAware Approximate
06:12AM -12.2257 -57.1317 139° Southeast  Level FlightAware Approximate
06:13AM -12.3278 -57.0417 139° Southeast  Level FlightAware Approximate
06:14AM -12.4299 -56.9516 139° Southeast  Level FlightAware Approximate
06:15AM -12.5320 -56.8615 139° Southeast  Level FlightAware Approximate
06:16AM -12.6341 -56.7713 139° Southeast  Level FlightAware Approximate
06:17AM -12.7361 -56.6810 139° Southeast  Level FlightAware Approximate
06:18AM -12.8381 -56.5907 139° Southeast  Level FlightAware Approximate
06:19AM -12.9401 -56.5003 139° Southeast  Level FlightAware Approximate
06:20AM -13.0420 -56.4098 139° Southeast  Level FlightAware Approximate
06:21AM -13.1439 -56.3192 139° Southeast  Level FlightAware Approximate
06:22AM -13.2458 -56.2286 139° Southeast  Level FlightAware Approximate
06:23AM -13.3477 -56.1378 139° Southeast  Level FlightAware Approximate
06:24AM -13.4495 -56.0471 139° Southeast  Level FlightAware Approximate
06:25AM -13.5513 -55.9562 139° Southeast  Level FlightAware Approximate
06:26AM -13.6530 -55.8652 139° Southeast  Level FlightAware Approximate
06:27AM -13.7547 -55.7742 139° Southeast  Level FlightAware Approximate
06:28AM -13.8564 -55.6831 139° Southeast  Level FlightAware Approximate
06:29AM -13.9580 -55.5919 139° Southeast  Level FlightAware Approximate
06:30AM -14.0597 -55.5007 139° Southeast  Level FlightAware Approximate
06:31AM -14.1612 -55.4093 139° Southeast  Level FlightAware Approximate
06:32AM -14.2628 -55.3179 139° Southeast  Level FlightAware Approximate
06:33AM -14.3643 -55.2264 139° Southeast  Level FlightAware Approximate
06:34AM -14.4657 -55.1348 139° Southeast  Level FlightAware Approximate
06:35AM -14.5672 -55.0431 139° Southeast  Level FlightAware Approximate
06:36AM -14.6686 -54.9513 139° Southeast  Level FlightAware Approximate
06:37AM -14.7699 -54.8595 139° Southeast  Level FlightAware Approximate
06:38AM -14.8713 -54.7676 139° Southeast  Level FlightAware Approximate
06:39AM -14.9726 -54.6755 139° Southeast  Level FlightAware Approximate
06:40AM -15.0738 -54.5834 139° Southeast  Level FlightAware Approximate
06:41AM -15.1750 -54.4912 139° Southeast  Level FlightAware Approximate
06:42AM -15.2762 -54.3990 139° Southeast  Level FlightAware Approximate
06:43AM -15.3774 -54.3066 139° Southeast  Level FlightAware Approximate
06:44AM -15.4785 -54.2141 139° Southeast  Level FlightAware Approximate
06:45AM -15.5795 -54.1216 139° Southeast  Level FlightAware Approximate
06:46AM -15.6806 -54.0289 139° Southeast  Level FlightAware Approximate
06:47AM -15.7816 -53.9362 139° Southeast  Level FlightAware Approximate
06:48AM -15.8825 -53.8434 139° Southeast  Level FlightAware Approximate
06:49AM -15.9834 -53.7505 138° Southeast  Level FlightAware Approximate
06:50AM -16.0843 -53.6575 138° Southeast  Level FlightAware Approximate
06:51AM -16.1851 -53.5643 138° Southeast  Level FlightAware Approximate
06:52AM -16.2859 -53.4711 138° Southeast  Level FlightAware Approximate
06:53AM -16.3867 -53.3778 138° Southeast  Level FlightAware Approximate
06:54AM -16.4874 -53.2845 138° Southeast  Level FlightAware Approximate
06:55AM -16.5880 -53.1910 138° Southeast  Level FlightAware Approximate
06:56AM -16.6887 -53.0974 138° Southeast  Level FlightAware Approximate
06:57AM -16.7892 -53.0037 138° Southeast  Level FlightAware Approximate
06:58AM -16.8898 -52.9099 138° Southeast  Level FlightAware Approximate
06:59AM -16.9903 -52.8160 138° Southeast  Level FlightAware Approximate
07:00AM -17.0907 -52.7220 138° Southeast  Level FlightAware Approximate
07:01AM -17.1911 -52.6279 138° Southeast  Level FlightAware Approximate
07:02AM -17.2915 -52.5337 138° Southeast  Level FlightAware Approximate
07:03AM -17.3918 -52.4394 138° Southeast  Level FlightAware Approximate
07:04AM -17.4921 -52.3450 138° Southeast  Level FlightAware Approximate
07:05AM -17.5923 -52.2505 138° Southeast  Level FlightAware Approximate
07:06AM -17.6925 -52.1559 138° Southeast  Level FlightAware Approximate
07:07AM -17.7927 -52.0612 138° Southeast  Level FlightAware Approximate
07:08AM -17.8928 -51.9664 138° Southeast  Level FlightAware Approximate
07:09AM -17.9928 -51.8715 138° Southeast  Level FlightAware Approximate
07:10AM -18.0928 -51.7764 138° Southeast  Level FlightAware Approximate
07:11AM -18.1928 -51.6813 138° Southeast  Level FlightAware Approximate
07:12AM -18.2927 -51.5860 138° Southeast  Level FlightAware Approximate
07:13AM -18.3926 -51.4907 138° Southeast  Level FlightAware Approximate
07:14AM -18.4924 -51.3952 138° Southeast  Level FlightAware Approximate
07:15AM -18.5921 -51.2996 138° Southeast  Level FlightAware Approximate
07:16AM -18.6919 -51.2039 138° Southeast  Level FlightAware Approximate
07:17AM -18.7915 -51.1081 138° Southeast  Level FlightAware Approximate
07:18AM -18.8912 -51.0122 138° Southeast  Level FlightAware Approximate
07:19AM -18.9907 -50.9162 138° Southeast  Level FlightAware Approximate
07:20AM -19.0903 -50.8200 138° Southeast  Level FlightAware Approximate
07:21AM -19.1897 -50.7238 138° Southeast  Level FlightAware Approximate
07:22AM -19.2891 -50.6274 138° Southeast  Level FlightAware Approximate
07:23AM -19.3885 -50.5309 138° Southeast  Level FlightAware Approximate
07:24AM -19.4878 -50.4342 137° Southeast  Level FlightAware Approximate
07:25AM -19.5871 -50.3375 137° Southeast  Level FlightAware Approximate
07:26AM -19.6863 -50.2407 137° Southeast  Level FlightAware Approximate
07:27AM -19.7855 -50.1437 137° Southeast  Level FlightAware Approximate
07:28AM -19.8846 -50.0466 137° Southeast  Level FlightAware Approximate
07:29AM -19.9837 -49.9494 137° Southeast  Level FlightAware Approximate
07:30AM -20.0827 -49.8520 137° Southeast  Level FlightAware Approximate
07:31AM -20.1816 -49.7546 137° Southeast  Level FlightAware Approximate
07:32AM -20.2805 -49.6570 137° Southeast  Level FlightAware Approximate
07:33AM -20.3794 -49.5593 137° Southeast  Level FlightAware Approximate
07:34AM -20.4782 -49.4614 137° Southeast  Level FlightAware Approximate
07:35AM -20.5769 -49.3635 137° Southeast  Level FlightAware Approximate
07:36AM -20.6756 -49.2654 137° Southeast  Level FlightAware Approximate
07:37AM -20.7742 -49.1672 137° Southeast  Level FlightAware Approximate
07:38AM -20.8728 -49.0688 137° Southeast  Level FlightAware Approximate
07:39AM -20.9713 -48.9704 137° Southeast  Level FlightAware Approximate
07:40AM -21.0698 -48.8718 137° Southeast  Level FlightAware Approximate
07:41AM -21.1682 -48.7730 137° Southeast  Level FlightAware Approximate
07:42AM -21.2665 -48.6742 137° Southeast  Level FlightAware Approximate
07:43AM -21.3648 -48.5752 137° Southeast  Level FlightAware Approximate
07:44AM -21.4631 -48.4760 137° Southeast  Level FlightAware Approximate
07:45AM -21.5612 -48.3768 137° Southeast  Level FlightAware Approximate
07:46AM -21.6593 -48.2774 137° Southeast  Level FlightAware Approximate
07:47AM -21.7574 -48.1778 137° Southeast  Level FlightAware Approximate
07:48AM -21.8554 -48.0782 137° Southeast  Level FlightAware Approximate
07:49AM -21.9540 -47.9793 137° Southeast  Level FlightAware Approximate
07:50AM -22.0528 -47.8805 137° Southeast  Level FlightAware Approximate
07:51AM -22.1517 -47.7817 137° Southeast  Level FlightAware Approximate
07:52AM -22.2506 -47.6828 137° Southeast  Level FlightAware Approximate
07:53AM -22.3496 -47.5839 137° Southeast  Level FlightAware Approximate
07:54AM -22.4479 -47.4841 135° Southeast  Level FlightAware Approximate
07:55AM -22.5429 -47.3806 135° Southeast  Level FlightAware Approximate
07:56AM -22.6387 -47.2780 137° Southeast  Level FlightAware Approximate
07:57AM -22.7378 -47.1790 137° Southeast  Level FlightAware Approximate
07:58AM -22.8368 -47.0798 137° Southeast  Level FlightAware Approximate
07:59AM -22.9305 -46.9747 134° Southeast  Level FlightAware Approximate
08:00AM -23.0242 -46.8695 134° Southeast  Level FlightAware Approximate
08:01AM -23.1185 -46.7648 137° Southeast  Level FlightAware Approximate
08:02AM -23.2230 -46.6725 143° Southeast  Level FlightAware Approximate
08:03AM -23.3160 -46.5673 137° Southeast  Level FlightAware Approximate
08:04AM -23.4153 -46.4680 137° Southeast  Level FlightAware Approximate
08:05AM -23.4167 -46.4667 137° Southeast  Level FlightAware Approximate
08:05AM -21.0882 -46.4028 137° Southeast 455 524 36,000  Level FlightAware ADS-B
08:14AM -21.2141 -46.8974 182° South 459 528 36,000  Level FlightAware ADS-B
08:16AM -21.3900 -46.8074 155° Southeast 468 539 36,000  Level FlightAware ADS-B
08:16AM -21.4925 -46.7542 154° Southeast 470 541 36,000  Level FlightAware ADS-B
08:17AM -21.5452 -46.7276 155° Southeast 471 542 36,000  Level FlightAware ADS-B
08:18AM -21.6177 -46.6911 155° Southeast 474 545 36,000  Level FlightAware ADS-B
08:19AM -21.7542 -46.6224 155° Southeast 474 545 36,000  Level FlightAware ADS-B
08:19AM -21.8152 -46.5917 155° Southeast 472 543 36,000 -120 Level FlightAware ADS-B
08:20AM -21.8797 -46.5592 155° Southeast 468 539 35,900 -720 Descending FlightAware ADS-B
08:20AM -21.9433 -46.5271 155° Southeast 456 525 35,300 -1,080 Descending FlightAware ADS-B
08:21AM -21.9952 -46.5010 155° Southeast 436 502 34,700 -1,500 Descending FlightAware ADS-B
08:21AM -22.0676 -46.4642 155° Southeast 430 495 33,700 -1,800 Descending FlightAware ADS-B
08:22AM -22.1213 -46.4371 155° Southeast 427 491 32,800 -1,740 Descending FlightAware ADS-B
08:23AM -22.1751 -46.4098 155° Southeast 417 480 31,800 -1,680 Descending FlightAware ADS-B
08:23AM -22.2465 -46.3736 155° Southeast 407 468 30,900 -1,500 Descending FlightAware ADS-B
08:24AM -22.3074 -46.3426 155° Southeast 400 460 30,000 -1,680 Descending FlightAware ADS-B
08:24AM -22.3569 -46.3175 155° Southeast 394 453 29,100 -1,860 Descending FlightAware ADS-B
08:25AM -22.4193 -46.2921 159° South 389 448 27,800 -1,980 Descending FlightAware ADS-B
08:25AM -22.4832 -46.2871 176° South 389 448 26,800 -1,800 Descending FlightAware ADS-B
08:26AM -22.5445 -46.2867 180° South 382 440 25,900 -1,620 Descending FlightAware ADS-B
08:27AM -22.6206 -46.2859 179° South 377 434 24,700 -1,680 Descending FlightAware ADS-B
08:27AM -22.6722 -46.2850 179° South 375 432 23,800 -1,920 Descending FlightAware ADS-B
08:28AM -22.7262 -46.2840 179° South 373 429 22,800 -1,980 Descending FlightAware ADS-B
08:28AM -22.7801 -46.2831 179° South 365 420 21,700 -1,740 Descending FlightAware ADS-B
08:29AM -22.8522 -46.2819 179° South 361 415 20,800 -1,140 Descending FlightAware ADS-B
08:30AM -22.9150 -46.2808 179° South 354 407 20,300 -1,320 Descending FlightAware ADS-B
08:30AM -22.9652 -46.2800 179° South 351 404 19,300 -2,460 Descending FlightAware ADS-B
08:31AM -23.0189 -46.2791 179° South 343 395 17,700 -2,820 Descending FlightAware ADS-B
08:31AM -23.0697 -46.2784 179° South 333 383 16,300 -2,760 Descending FlightAware ADS-B
08:32AM -23.1228 -46.2776 179° South 331 381 14,600 -2,880 Descending FlightAware ADS-B
08:32AM -23.1753 -46.2768 179° South 323 372 13,000 -2,280 Descending FlightAware ADS-B
08:33AM -23.2213 -46.2760 179° South 299 344 12,000 -1,920 Descending FlightAware ADS-B
08:33AM -23.2455 -46.2771 182° South 295 339 11,500 -1,560 Descending FlightAware ADS-B
08:34AM -23.2679 -46.2880 204° Southwest 291 335 11,100 -1,320 Descending FlightAware ADS-B
08:34AM -23.2819 -46.3057 229° Southwest 292 336 10,700 -1,500 Descending FlightAware ADS-B
08:34AM -23.2887 -46.3250 249° West 297 342 10,400 -840 Descending FlightAware ADS-B
08:35AM -23.3031 -46.3726 252° West 297 342 10,100 -300 Descending FlightAware ADS-B
08:35AM -23.3153 -46.4145 252° West 295 339 10,100 -120 Level FlightAware ADS-B
08:36AM -23.3304 -46.4660 252° West 294 338 10,000 -240 Descending FlightAware ADS-B
08:36AM -23.3385 -46.4936 252° West 293 337 9,900 -180 Descending FlightAware ADS-B
08:36AM -23.3452 -46.5161 252° West 288 331 9,900 -600 Level FlightAware ADS-B
08:37AM -23.3518 -46.5380 252° West 286 329 9,600 -1,320 Descending FlightAware ADS-B
08:37AM -23.3629 -46.5751 252° West 286 329 9,000 -1,320 Descending FlightAware ADS-B
08:37AM -23.3695 -46.5976 252° West 285 328 8,700 -1,200 Descending FlightAware ADS-B
08:37AM -23.3753 -46.6171 252° West 282 325 8,400 -900 Descending FlightAware ADS-B
08:38AM -23.3822 -46.6408 252° West 270 311 8,200 -900 Descending FlightAware ADS-B
08:38AM -23.3866 -46.6533 249° West 266 306 8,000 -1,020 Descending FlightAware ADS-B
08:38AM -23.3989 -46.6700 231° Southwest 258 297 7,800 -780 Descending FlightAware ADS-B
08:38AM -23.4044 -46.6741 214° Southwest 256 295 7,700 -1,140 Descending FlightAware ADS-B
08:38AM -23.4148 -46.6786 202° Southwest 253 291 7,500 -1,140 Descending FlightAware ADS-B
08:39AM -23.4230 -46.6799 188° South 245 282 7,400 -840 Descending FlightAware ADS-B
08:39AM -23.4330 -46.6791 176° South 241 277 7,300 -1,500 Descending FlightAware ADS-B
08:39AM -23.4615 -46.6705 165° South 229 264 6,500 -2,040 Descending FlightAware ADS-B
08:39AM -23.4742 -46.6593 141° Southeast 225 259 5,800 -2,520 Descending FlightAware ADS-B
08:40AM -23.4793 -46.6459 113° Southeast 221 254 5,300 -1,800 Descending FlightAware ADS-B
08:40AM -23.4764 -46.6274 80° East 220 253 4,900 -1,500 Descending FlightAware ADS-B
08:40AM -23.4724 -46.6122 74° East 209 241 4,500 -1,380 Descending FlightAware ADS-B
08:41AM -23.4668 -46.5909 74° East 194 223 4,100 -1,080 Descending FlightAware ADS-B
08:41AM -23.4636 -46.5789 74° East 184 212 3,900 -1,020 Descending FlightAware ADS-B
08:41AM -23.4594 -46.5634 74° East 180 207 3,600 -1,080 Descending FlightAware ADS-B
08:41AM -23.4559 -46.5505 74° East 168 193 3,300 -840 Descending FlightAware ADS-B
08:42AM -23.4504 -46.5298 74° East 165 190 3,000 -840 Descending FlightAware ADS-B
08:42AM -23.4452 -46.5105 74° East 168 193 2,700 -840 Descending FlightAware ADS-B
08:42AM -23.4449 -46.5093 74° East 167 192 2,500 -840 Descending FlightAware ADS-B
08:45AM -23.4321 -46.4695 137° Southeast  Level Estimated